sensor_id;sensor_type;location;lat;lon;timestamp;pressure;altitude;pressure_sealevel;temperature;humidity
60228;BME280;46091;46.512;6.626;2023-06-26T04:33:46;97108.84;;;24.81;49.19
60228;BME280;46091;46.512;6.626;2023-06-26T04:35:52;97100.34;;;25.08;48.48
60228;BME280;46091;46.512;6.626;2023-06-26T04:37:55;97110.50;;;25.32;48.44
60228;BME280;46091;46.512;6.626;2023-06-26T04:39:58;97112.00;;;25.48;48.15
60228;BME280;46091;46.512;6.626;2023-06-26T04:42:01;97113.81;;;25.63;47.90
60228;BME280;46091;46.512;6.626;2023-06-26T04:44:04;97106.19;;;25.75;47.58
60228;BME280;46091;46.512;6.626;2023-06-26T04:46:07;97112.31;;;25.86;47.41
60228;BME280;46091;46.512;6.626;2023-06-26T04:48:10;97111.97;;;25.92;47.13
60228;BME280;46091;46.512;6.626;2023-06-26T04:50:14;97117.88;;;25.99;47.14
60228;BME280;46091;46.512;6.626;2023-06-26T04:52:20;97123.25;;;26.04;47.26
60228;BME280;46091;46.512;6.626;2023-06-26T04:54:23;97127.03;;;26.08;47.20
60228;BME280;46091;46.512;6.626;2023-06-26T04:56:26;97120.50;;;26.09;46.86
60228;BME280;46091;46.512;6.626;2023-06-26T04:58:29;97125.88;;;26.15;47.04
60228;BME280;46091;46.512;6.626;2023-06-26T05:00:31;97131.56;;;26.18;46.73
60228;BME280;46091;46.512;6.626;2023-06-26T05:02:37;97132.88;;;26.21;46.77
60228;BME280;46091;46.512;6.626;2023-06-26T05:04:40;97127.97;;;26.23;46.74
60228;BME280;46091;46.512;6.626;2023-06-26T05:06:45;97116.56;;;26.26;47.08
60228;BME280;46091;46.512;6.626;2023-06-26T05:08:48;97123.59;;;26.27;46.97
60228;BME280;46091;46.512;6.626;2023-06-26T05:10:51;97119.53;;;26.29;46.96
60228;BME280;46091;46.512;6.626;2023-06-26T05:12:59;97121.66;;;26.32;47.07
60228;BME280;46091;46.512;6.626;2023-06-26T05:15:02;97127.59;;;26.34;46.76
60228;BME280;46091;46.512;6.626;2023-06-26T05:17:05;97120.25;;;26.35;47.10
60228;BME280;46091;46.512;6.626;2023-06-26T05:19:08;97117.03;;;26.33;46.92
60228;BME280;46091;46.512;6.626;2023-06-26T05:21:11;97109.97;;;26.37;46.83
60228;BME280;46091;46.512;6.626;2023-06-26T05:23:16;97112.66;;;26.42;46.88
60228;BME280;46091;46.512;6.626;2023-06-26T05:25:22;97111.78;;;26.47;46.77
60228;BME280;46091;46.512;6.626;2023-06-26T05:27:26;97113.63;;;26.51;46.71
60228;BME280;46091;46.512;6.626;2023-06-26T05:29:31;97105.44;;;26.56;46.57
60228;BME280;46091;46.512;6.626;2023-06-26T05:31:37;97114.84;;;26.64;46.70
60228;BME280;46091;46.512;6.626;2023-06-26T05:33:44;97113.38;;;26.72;46.46
60228;BME280;46091;46.512;6.626;2023-06-26T05:35:48;97111.94;;;26.79;46.38
60228;BME280;46091;46.512;6.626;2023-06-26T05:37:52;97113.53;;;26.85;46.31
60228;BME280;46091;46.512;6.626;2023-06-26T05:39:57;97120.19;;;26.93;46.12
60228;BME280;46091;46.512;6.626;2023-06-26T05:42:00;97126.88;;;27.01;45.93
60228;BME280;46091;46.512;6.626;2023-06-26T05:44:04;97130.81;;;27.13;45.96
60228;BME280;46091;46.512;6.626;2023-06-26T05:46:07;97126.88;;;27.24;45.76
60228;BME280;46091;46.512;6.626;2023-06-26T05:48:10;97116.38;;;27.37;45.68
60228;BME280;46091;46.512;6.626;2023-06-26T05:50:14;97120.56;;;27.48;45.63
60228;BME280;46091;46.512;6.626;2023-06-26T05:52:18;97113.38;;;27.57;45.62
60228;BME280;46091;46.512;6.626;2023-06-26T05:54:22;97106.22;;;27.66;45.44
60228;BME280;46091;46.512;6.626;2023-06-26T05:56:26;97095.19;;;27.76;45.51
60228;BME280;46091;46.512;6.626;2023-06-26T05:58:30;97092.09;;;27.83;45.43
60228;BME280;46091;46.512;6.626;2023-06-26T06:00:34;97096.34;;;27.89;45.25
60228;BME280;46091;46.512;6.626;2023-06-26T06:02:37;97101.69;;;27.94;45.27
60228;BME280;46091;46.512;6.626;2023-06-26T06:04:40;97099.69;;;28.00;45.36
60228;BME280;46091;46.512;6.626;2023-06-26T06:06:43;97104.53;;;28.03;45.26
60228;BME280;46091;46.512;6.626;2023-06-26T06:08:46;97112.88;;;28.06;45.13
60228;BME280;46091;46.512;6.626;2023-06-26T06:10:50;97105.25;;;28.08;45.18
60228;BME280;46091;46.512;6.626;2023-06-26T06:12:56;97107.16;;;28.08;45.20
60228;BME280;46091;46.512;6.626;2023-06-26T06:14:58;97106.34;;;28.07;44.98
60228;BME280;46091;46.512;6.626;2023-06-26T06:17:01;97105.53;;;28.07;45.19
60228;BME280;46091;46.512;6.626;2023-06-26T06:19:04;97110.97;;;28.07;45.08
60228;BME280;46091;46.512;6.626;2023-06-26T06:21:09;97117.22;;;28.07;45.24
60228;BME280;46091;46.512;6.626;2023-06-26T06:23:12;97126.19;;;28.08;44.93
60228;BME280;46091;46.512;6.626;2023-06-26T06:25:15;97124.56;;;28.07;45.13
60228;BME280;46091;46.512;6.626;2023-06-26T06:27:18;97125.09;;;28.09;44.81
60228;BME280;46091;46.512;6.626;2023-06-26T06:29:22;97116.94;;;28.09;45.01
60228;BME280;46091;46.512;6.626;2023-06-26T06:31:25;97112.59;;;28.08;44.83
60228;BME280;46091;46.512;6.626;2023-06-26T06:33:29;97115.84;;;28.10;44.98
60228;BME280;46091;46.512;6.626;2023-06-26T06:35:32;97122.88;;;28.11;45.01
60228;BME280;46091;46.512;6.626;2023-06-26T06:37:36;97121.78;;;28.12;44.87
60228;BME280;46091;46.512;6.626;2023-06-26T06:39:39;97120.66;;;28.13;44.68
60228;BME280;46091;46.512;6.626;2023-06-26T06:41:42;97119.06;;;28.12;44.75
60228;BME280;46091;46.512;6.626;2023-06-26T06:43:45;97119.06;;;28.12;44.67
60228;BME280;46091;46.512;6.626;2023-06-26T06:45:50;97111.41;;;28.14;44.66
60228;BME280;46091;46.512;6.626;2023-06-26T06:47:52;97109.19;;;28.16;44.62
60228;BME280;46091;46.512;6.626;2023-06-26T06:49:55;97107.28;;;28.17;44.44
60228;BME280;46091;46.512;6.626;2023-06-26T06:51:58;97105.06;;;28.19;44.55
60228;BME280;46091;46.512;6.626;2023-06-26T06:54:01;97103.88;;;28.25;44.31
60228;BME280;46091;46.512;6.626;2023-06-26T06:56:04;97105.22;;;28.27;44.09
60228;BME280;46091;46.512;6.626;2023-06-26T06:58:07;97112.50;;;28.32;44.01
60228;BME280;46091;46.512;6.626;2023-06-26T07:00:12;97100.72;;;28.36;43.97
60228;BME280;46091;46.512;6.626;2023-06-26T07:02:17;97103.13;;;28.38;43.98
60228;BME280;46091;46.512;6.626;2023-06-26T07:04:21;97100.91;;;28.40;43.67
60228;BME280;46091;46.512;6.626;2023-06-26T07:06:25;97114.50;;;28.40;43.52
60228;BME280;46091;46.512;6.626;2023-06-26T07:08:28;97110.47;;;28.37;43.67
60228;BME280;46091;46.512;6.626;2023-06-26T07:10:31;97098.28;;;28.35;43.34
60228;BME280;46091;46.512;6.626;2023-06-26T07:12:35;97106.22;;;28.31;43.41
60228;BME280;46091;46.512;6.626;2023-06-26T07:14:38;97109.63;;;28.23;43.37
60228;BME280;46091;46.512;6.626;2023-06-26T07:16:41;97110.81;;;28.17;43.44
60228;BME280;46091;46.512;6.626;2023-06-26T07:18:46;97111.72;;;28.12;43.26
60228;BME280;46091;46.512;6.626;2023-06-26T07:20:49;97112.59;;;28.08;43.27
60228;BME280;46091;46.512;6.626;2023-06-26T07:22:52;97116.50;;;28.02;43.14
60228;BME280;46091;46.512;6.626;2023-06-26T07:24:55;97117.38;;;27.97;42.96
60228;BME280;46091;46.512;6.626;2023-06-26T07:26:59;97107.91;;;27.95;43.05
60228;BME280;46091;46.512;6.626;2023-06-26T07:29:02;97103.59;;;27.94;43.09
60228;BME280;46091;46.512;6.626;2023-06-26T07:31:05;97108.53;;;27.92;43.17
60228;BME280;46091;46.512;6.626;2023-06-26T07:33:08;97110.75;;;27.90;42.88
60228;BME280;46091;46.512;6.626;2023-06-26T07:35:13;97114.31;;;27.85;42.89
60228;BME280;46091;46.512;6.626;2023-06-26T07:37:15;97104.06;;;27.82;43.11
60228;BME280;46091;46.512;6.626;2023-06-26T07:39:19;97100.84;;;27.80;43.11
60228;BME280;46091;46.512;6.626;2023-06-26T07:41:24;97106.56;;;27.78;43.10
60228;BME280;46091;46.512;6.626;2023-06-26T07:43:27;97109.88;;;27.75;43.06
60228;BME280;46091;46.512;6.626;2023-06-26T07:45:31;97109.34;;;27.73;43.00
60228;BME280;46091;46.512;6.626;2023-06-26T07:47:34;97104.81;;;27.69;43.01
60228;BME280;46091;46.512;6.626;2023-06-26T07:49:37;97117.09;;;27.66;43.20
60228;BME280;46091;46.512;6.626;2023-06-26T07:51:41;97113.84;;;27.64;43.08
60228;BME280;46091;46.512;6.626;2023-06-26T07:53:45;97102.72;;;27.61;43.07
60228;BME280;46091;46.512;6.626;2023-06-26T07:55:47;97107.34;;;27.60;42.82
60228;BME280;46091;46.512;6.626;2023-06-26T07:57:50;97102.22;;;27.59;42.92
60228;BME280;46091;46.512;6.626;2023-06-26T07:59:54;97101.41;;;27.58;42.93
60228;BME280;46091;46.512;6.626;2023-06-26T08:01:57;97102.81;;;27.55;42.90
60228;BME280;46091;46.512;6.626;2023-06-26T08:04:00;97101.50;;;27.53;42.95
60228;BME280;46091;46.512;6.626;2023-06-26T08:06:04;97099.06;;;27.51;43.01
60228;BME280;46091;46.512;6.626;2023-06-26T08:08:08;97100.47;;;27.49;42.92
60228;BME280;46091;46.512;6.626;2023-06-26T08:10:11;97114.03;;;27.49;42.82
60228;BME280;46091;46.512;6.626;2023-06-26T08:12:14;97116.75;;;27.49;42.87
60228;BME280;46091;46.512;6.626;2023-06-26T08:14:17;97121.38;;;27.48;42.88
60228;BME280;46091;46.512;6.626;2023-06-26T08:16:20;97108.59;;;27.49;43.03
60228;BME280;46091;46.512;6.626;2023-06-26T08:18:25;97110.22;;;27.50;42.98
60228;BME280;46091;46.512;6.626;2023-06-26T08:20:27;97115.94;;;27.48;43.17
60228;BME280;46091;46.512;6.626;2023-06-26T08:22:31;97116.75;;;27.49;43.21
60228;BME280;46091;46.512;6.626;2023-06-26T08:24:35;97111.31;;;27.49;43.15
60228;BME280;46091;46.512;6.626;2023-06-26T08:26:39;97111.31;;;27.49;43.27
60228;BME280;46091;46.512;6.626;2023-06-26T08:28:42;97115.34;;;27.51;43.40
60228;BME280;46091;46.512;6.626;2023-06-26T08:30:45;97111.56;;;27.52;43.46
60228;BME280;46091;46.512;6.626;2023-06-26T08:32:48;97101.50;;;27.53;43.42
60228;BME280;46091;46.512;6.626;2023-06-26T08:34:53;97103.13;;;27.54;43.55
60228;BME280;46091;46.512;6.626;2023-06-26T08:36:56;97101.72;;;27.56;43.40
60228;BME280;46091;46.512;6.626;2023-06-26T08:38:59;97103.03;;;27.59;43.56
60228;BME280;46091;46.512;6.626;2023-06-26T08:41:03;97105.44;;;27.61;43.58
60228;BME280;46091;46.512;6.626;2023-06-26T08:43:10;97094.28;;;27.62;43.55
60228;BME280;46091;46.512;6.626;2023-06-26T08:45:13;97098.38;;;27.65;43.58
60228;BME280;46091;46.512;6.626;2023-06-26T08:47:16;97099.19;;;27.65;43.71
60228;BME280;46091;46.512;6.626;2023-06-26T08:49:25;97088.81;;;27.67;43.74
60228;BME280;46091;46.512;6.626;2023-06-26T08:51:33;97090.13;;;27.70;43.75
60228;BME280;46091;46.512;6.626;2023-06-26T08:53:40;97086.31;;;27.71;43.70
60228;BME280;46091;46.512;6.626;2023-06-26T08:55:46;97085.22;;;27.72;43.84
60228;BME280;46091;46.512;6.626;2023-06-26T08:57:53;97084.91;;;27.73;43.66
60228;BME280;46091;46.512;6.626;2023-06-26T08:59:56;97086.50;;;27.74;43.61
60228;BME280;46091;46.512;6.626;2023-06-26T09:01:59;97083.53;;;27.76;43.53
60228;BME280;46091;46.512;6.626;2023-06-26T09:04:05;97088.66;;;27.77;43.58
60228;BME280;46091;46.512;6.626;2023-06-26T09:06:08;97082.94;;;27.79;43.51
60228;BME280;46091;46.512;6.626;2023-06-26T09:08:11;97082.13;;;27.78;43.32
60228;BME280;46091;46.512;6.626;2023-06-26T09:10:15;97090.78;;;27.80;43.26
60228;BME280;46091;46.512;6.626;2023-06-26T09:12:20;97088.56;;;27.82;42.98
60228;BME280;46091;46.512;6.626;2023-06-26T09:14:26;97088.56;;;27.82;42.96
60228;BME280;46091;46.512;6.626;2023-06-26T09:16:29;97095.59;;;27.83;43.02
60228;BME280;46091;46.512;6.626;2023-06-26T09:18:32;97091.78;;;27.84;42.72
60228;BME280;46091;46.512;6.626;2023-06-26T09:20:36;97093.41;;;27.85;42.80
60228;BME280;46091;46.512;6.626;2023-06-26T09:22:41;97090.91;;;27.89;42.89
60228;BME280;46091;46.512;6.626;2023-06-26T09:24:44;97103.09;;;27.92;43.02
60228;BME280;46091;46.512;6.626;2023-06-26T09:26:48;97091.13;;;27.93;42.96
60228;BME280;46091;46.512;6.626;2023-06-26T09:28:52;97092.72;;;27.94;43.21
60228;BME280;46091;46.512;6.626;2023-06-26T09:31:00;97089.19;;;27.93;43.34
60228;BME280;46091;46.512;6.626;2023-06-26T09:33:16;97088.41;;;27.93;43.29
60228;BME280;46091;46.512;6.626;2023-06-26T09:35:20;97089.19;;;27.93;43.46
60228;BME280;46091;46.512;6.626;2023-06-26T09:37:23;97085.38;;;27.94;43.51
60228;BME280;46091;46.512;6.626;2023-06-26T09:39:26;97088.91;;;27.95;43.50
60228;BME280;46091;46.512;6.626;2023-06-26T09:41:29;97093.22;;;27.96;43.48
60228;BME280;46091;46.512;6.626;2023-06-26T09:43:32;97101.06;;;27.97;43.55
60228;BME280;46091;46.512;6.626;2023-06-26T09:45:39;97096.19;;;27.99;43.55
60228;BME280;46091;46.512;6.626;2023-06-26T09:47:45;97088.03;;;27.99;43.64
60228;BME280;46091;46.512;6.626;2023-06-26T09:49:48;97088.84;;;28.00;43.76
60228;BME280;46091;46.512;6.626;2023-06-26T09:51:53;97091.25;;;28.01;43.78
60228;BME280;46091;46.512;6.626;2023-06-26T09:53:56;97088.22;;;28.03;43.77
60228;BME280;46091;46.512;6.626;2023-06-26T09:56:05;97091.75;;;28.03;43.61
60228;BME280;46091;46.512;6.626;2023-06-26T09:58:08;97092.25;;;28.05;43.85
60228;BME280;46091;46.512;6.626;2023-06-26T10:00:14;97093.06;;;28.06;43.79
60228;BME280;46091;46.512;6.626;2023-06-26T10:02:17;97084.91;;;28.06;43.80
60228;BME280;46091;46.512;6.626;2023-06-26T10:04:22;97083.00;;;28.06;43.77
60228;BME280;46091;46.512;6.626;2023-06-26T10:06:27;97084.59;;;28.07;43.71
60228;BME280;46091;46.512;6.626;2023-06-26T10:08:34;97083.78;;;28.07;43.73
60228;BME280;46091;46.512;6.626;2023-06-26T10:10:37;97082.69;;;28.08;43.42
60228;BME280;46091;46.512;6.626;2023-06-26T10:12:42;97084.59;;;28.07;43.50
60228;BME280;46091;46.512;6.626;2023-06-26T10:14:47;97086.22;;;28.08;43.36
60228;BME280;46091;46.512;6.626;2023-06-26T10:16:51;97083.22;;;28.10;43.23
60228;BME280;46091;46.512;6.626;2023-06-26T10:19:00;97070.94;;;28.12;43.14
60228;BME280;46091;46.512;6.626;2023-06-26T10:21:06;97078.50;;;28.16;43.08
60228;BME280;46091;46.512;6.626;2023-06-26T10:23:09;97075.97;;;28.19;42.87
60228;BME280;46091;46.512;6.626;2023-06-26T10:25:16;97083.03;;;28.20;42.62
60228;BME280;46091;46.512;6.626;2023-06-26T10:27:21;97090.59;;;28.23;42.60
60228;BME280;46091;46.512;6.626;2023-06-26T10:29:25;97086.19;;;28.27;42.62
60228;BME280;46091;46.512;6.626;2023-06-26T10:31:29;97086.69;;;28.29;42.49
60228;BME280;46091;46.512;6.626;2023-06-26T10:33:34;97085.31;;;28.32;42.18
60228;BME280;46091;46.512;6.626;2023-06-26T10:35:42;97079.75;;;28.37;42.22
60228;BME280;46091;46.512;6.626;2023-06-26T10:37:48;97081.38;;;28.38;42.25
60228;BME280;46091;46.512;6.626;2023-06-26T10:39:52;97081.06;;;28.39;42.12
60228;BME280;46091;46.512;6.626;2023-06-26T10:42:08;97087.31;;;28.40;42.19
60228;BME280;46091;46.512;6.626;2023-06-26T10:44:13;97088.13;;;28.40;42.08
60228;BME280;46091;46.512;6.626;2023-06-26T10:46:19;97087.53;;;28.44;42.12
60228;BME280;46091;46.512;6.626;2023-06-26T10:48:28;97083.72;;;28.45;42.00
60228;BME280;46091;46.512;6.626;2023-06-26T10:50:33;97086.13;;;28.46;41.96
60228;BME280;46091;46.512;6.626;2023-06-26T10:52:38;97084.72;;;28.49;41.96
60228;BME280;46091;46.512;6.626;2023-06-26T10:54:42;97080.38;;;28.48;42.02
60228;BME280;46091;46.512;6.626;2023-06-26T10:56:46;97080.38;;;28.48;41.88
60228;BME280;46091;46.512;6.626;2023-06-26T10:58:50;97079.25;;;28.49;41.90
60228;BME280;46091;46.512;6.626;2023-06-26T11:01:20;97079.25;;;28.49;41.97
60228;BME280;46091;46.512;6.626;2023-06-26T11:03:23;97075.44;;;28.50;41.88
60228;BME280;46091;46.512;6.626;2023-06-26T11:05:29;97077.06;;;28.51;41.68
60228;BME280;46091;46.512;6.626;2023-06-26T11:07:32;97077.53;;;28.53;41.75
60228;BME280;46091;46.512;6.626;2023-06-26T11:09:55;97069.13;;;28.54;41.69
60228;BME280;46091;46.512;6.626;2023-06-26T11:11:59;97069.59;;;28.56;41.69
60228;BME280;46091;46.512;6.626;2023-06-26T11:14:07;97073.63;;;28.59;41.89
60228;BME280;46091;46.512;6.626;2023-06-26T11:16:12;97068.19;;;28.59;41.64
60228;BME280;46091;46.512;6.626;2023-06-26T11:18:16;97066.28;;;28.59;41.55
60228;BME280;46091;46.512;6.626;2023-06-26T11:20:19;97071.41;;;28.61;41.46
60228;BME280;46091;46.512;6.626;2023-06-26T11:22:24;97066.47;;;28.63;41.25
60228;BME280;46091;46.512;6.626;2023-06-26T11:24:28;97070.22;;;28.67;41.44
60228;BME280;46091;46.512;6.626;2023-06-26T11:26:37;97071.03;;;28.67;41.15
60228;BME280;46091;46.512;6.626;2023-06-26T11:28:46;97061.75;;;28.68;41.09
60228;BME280;46091;46.512;6.626;2023-06-26T11:30:49;97061.94;;;28.72;41.21
60228;BME280;46091;46.512;6.626;2023-06-26T11:33:02;97073.00;;;28.76;41.03
60228;BME280;46091;46.512;6.626;2023-06-26T11:35:06;97070.28;;;28.76;40.86
60228;BME280;46091;46.512;6.626;2023-06-26T11:37:11;97068.09;;;28.78;40.82
60228;BME280;46091;46.512;6.626;2023-06-26T11:39:14;97072.13;;;28.80;40.91
60228;BME280;46091;46.512;6.626;2023-06-26T11:41:17;97069.91;;;28.82;40.78
60228;BME280;46091;46.512;6.626;2023-06-26T11:43:21;97074.22;;;28.83;40.68
60228;BME280;46091;46.512;6.626;2023-06-26T11:45:24;97076.31;;;28.86;40.84
60228;BME280;46091;46.512;6.626;2023-06-26T11:47:27;97073.06;;;28.89;40.72
60228;BME280;46091;46.512;6.626;2023-06-26T11:49:30;97074.66;;;28.90;40.64
60228;BME280;46091;46.512;6.626;2023-06-26T11:51:36;97068.09;;;28.91;40.63
60228;BME280;46091;46.512;6.626;2023-06-26T11:53:40;97065.38;;;28.91;40.52
60228;BME280;46091;46.512;6.626;2023-06-26T11:55:44;97067.00;;;28.92;40.42
60228;BME280;46091;46.512;6.626;2023-06-26T11:57:48;97063.16;;;28.93;40.48
60228;BME280;46091;46.512;6.626;2023-06-26T11:59:53;97063.97;;;28.94;40.34
60228;BME280;46091;46.512;6.626;2023-06-26T12:01:56;97065.56;;;28.95;40.27
60228;BME280;46091;46.512;6.626;2023-06-26T12:04:02;97064.16;;;28.97;40.31
60228;BME280;46091;46.512;6.626;2023-06-26T12:06:05;97058.91;;;29.01;40.27
60228;BME280;46091;46.512;6.626;2023-06-26T12:08:09;97065.16;;;29.02;39.95
60228;BME280;46091;46.512;6.626;2023-06-26T12:10:13;97069.81;;;29.01;39.97
60228;BME280;46091;46.512;6.626;2023-06-26T12:12:17;97070.00;;;29.05;39.88
60228;BME280;46091;46.512;6.626;2023-06-26T12:14:24;97056.88;;;29.07;39.86
60228;BME280;46091;46.512;6.626;2023-06-26T12:16:33;97054.66;;;29.09;39.88
60228;BME280;46091;46.512;6.626;2023-06-26T12:18:36;97060.59;;;29.11;39.81
60228;BME280;46091;46.512;6.626;2023-06-26T12:20:41;97057.28;;;29.14;39.58
60228;BME280;46091;46.512;6.626;2023-06-26T12:22:46;97053.94;;;29.17;39.64
60228;BME280;46091;46.512;6.626;2023-06-26T12:24:49;97052.81;;;29.18;39.50
60228;BME280;46091;46.512;6.626;2023-06-26T12:26:53;97054.91;;;29.21;39.37
60228;BME280;46091;46.512;6.626;2023-06-26T12:29:02;97062.81;;;29.22;39.52
60228;BME280;46091;46.512;6.626;2023-06-26T12:31:15;97051.00;;;29.27;39.25
60228;BME280;46091;46.512;6.626;2023-06-26T12:33:20;97058.44;;;29.35;39.12
60228;BME280;46091;46.512;6.626;2023-06-26T12:35:23;97059.41;;;29.39;38.98
60228;BME280;46091;46.512;6.626;2023-06-26T12:37:26;97061.19;;;29.44;38.92
60228;BME280;46091;46.512;6.626;2023-06-26T12:39:29;97056.56;;;29.44;38.82
60228;BME280;46091;46.512;6.626;2023-06-26T12:41:33;97059.28;;;29.44;38.85
60228;BME280;46091;46.512;6.626;2023-06-26T12:43:38;97062.00;;;29.44;38.86
60228;BME280;46091;46.512;6.626;2023-06-26T12:45:41;97055.47;;;29.45;38.72
60228;BME280;46091;46.512;6.626;2023-06-26T12:47:44;97044.28;;;29.47;38.71
60228;BME280;46091;46.512;6.626;2023-06-26T12:49:51;97047.50;;;29.49;38.84
60228;BME280;46091;46.512;6.626;2023-06-26T12:51:54;97047.19;;;29.50;38.86
60228;BME280;46091;46.512;6.626;2023-06-26T12:53:57;97040.16;;;29.49;38.67
60228;BME280;46091;46.512;6.626;2023-06-26T12:56:00;97040.16;;;29.49;38.66
60228;BME280;46091;46.512;6.626;2023-06-26T12:58:03;97032.47;;;29.51;38.69
60228;BME280;46091;46.512;6.626;2023-06-26T13:00:07;97034.56;;;29.54;38.85
60228;BME280;46091;46.512;6.626;2023-06-26T13:02:11;97026.91;;;29.56;38.62
60228;BME280;46091;46.512;6.626;2023-06-26T13:04:15;97024.47;;;29.55;38.47
60228;BME280;46091;46.512;6.626;2023-06-26T13:06:19;97023.88;;;29.58;38.39
60228;BME280;46091;46.512;6.626;2023-06-26T13:08:22;97021.94;;;29.59;38.59
60228;BME280;46091;46.512;6.626;2023-06-26T13:10:25;97017.63;;;29.58;38.56
60228;BME280;46091;46.512;6.626;2023-06-26T13:12:30;97026.06;;;29.56;38.62
60228;BME280;46091;46.512;6.626;2023-06-26T13:14:33;97023.06;;;29.58;38.41
60228;BME280;46091;46.512;6.626;2023-06-26T13:16:36;97012.78;;;29.54;38.63
60228;BME280;46091;46.512;6.626;2023-06-26T13:18:39;97015.81;;;29.53;38.78
60228;BME280;46091;46.512;6.626;2023-06-26T13:20:42;97003.31;;;29.52;38.53
60228;BME280;46091;46.512;6.626;2023-06-26T13:22:46;97015.00;;;29.52;38.74
60228;BME280;46091;46.512;6.626;2023-06-26T13:24:49;97015.50;;;29.54;38.68
60228;BME280;46091;46.512;6.626;2023-06-26T13:26:52;97005.72;;;29.53;38.74
60228;BME280;46091;46.512;6.626;2023-06-26T13:28:55;97013.88;;;29.53;38.74
60228;BME280;46091;46.512;6.626;2023-06-26T13:30:58;96998.34;;;29.54;38.78
60228;BME280;46091;46.512;6.626;2023-06-26T13:33:01;97005.41;;;29.55;38.73
60228;BME280;46091;46.512;6.626;2023-06-26T13:35:06;97007.69;;;29.62;38.89
60228;BME280;46091;46.512;6.626;2023-06-26T13:37:10;97011.41;;;29.66;38.76
60228;BME280;46091;46.512;6.626;2023-06-26T13:39:14;97004.84;;;29.67;38.65
60228;BME280;46091;46.512;6.626;2023-06-26T13:41:17;97001.50;;;29.70;38.76
60228;BME280;46091;46.512;6.626;2023-06-26T13:43:23;97002.00;;;29.72;38.70
60228;BME280;46091;46.512;6.626;2023-06-26T13:45:26;97000.88;;;29.73;38.71
60228;BME280;46091;46.512;6.626;2023-06-26T13:47:32;97000.56;;;29.74;38.90
60228;BME280;46091;46.512;6.626;2023-06-26T13:49:37;96998.34;;;29.76;38.84
60228;BME280;46091;46.512;6.626;2023-06-26T13:51:39;96995.28;;;29.78;38.92
60228;BME280;46091;46.512;6.626;2023-06-26T13:53:47;96995.81;;;29.80;38.60
60228;BME280;46091;46.512;6.626;2023-06-26T13:55:51;96997.41;;;29.81;38.74
60228;BME280;46091;46.512;6.626;2023-06-26T13:57:54;96994.69;;;29.81;39.16
60228;BME280;46091;46.512;6.626;2023-06-26T13:59:58;96984.75;;;29.85;39.00
60228;BME280;46091;46.512;6.626;2023-06-26T14:02:01;96990.22;;;29.85;39.17
60228;BME280;46091;46.512;6.626;2023-06-26T14:04:04;96984.59;;;29.81;39.24
60228;BME280;46091;46.512;6.626;2023-06-26T14:06:09;96983.47;;;29.82;39.47
60228;BME280;46091;46.512;6.626;2023-06-26T14:08:14;96990.03;;;29.81;39.72
60228;BME280;46091;46.512;6.626;2023-06-26T14:10:18;96971.28;;;29.80;39.84
60228;BME280;46091;46.512;6.626;2023-06-26T14:12:22;96986.03;;;29.79;39.94
60228;BME280;46091;46.512;6.626;2023-06-26T14:14:27;96987.63;;;29.80;40.25
60228;BME280;46091;46.512;6.626;2023-06-26T14:16:30;96978.66;;;29.79;40.29
60228;BME280;46091;46.512;6.626;2023-06-26T14:18:33;96981.06;;;29.81;40.33
60228;BME280;46091;46.512;6.626;2023-06-26T14:20:37;96973.22;;;29.79;40.18
60228;BME280;46091;46.512;6.626;2023-06-26T14:22:40;96977.84;;;29.79;40.28
60228;BME280;46091;46.512;6.626;2023-06-26T14:24:43;96978.66;;;29.79;40.25
60228;BME280;46091;46.512;6.626;2023-06-26T14:26:46;96976.72;;;29.80;40.07
60228;BME280;46091;46.512;6.626;2023-06-26T14:28:51;96979.94;;;29.82;40.23
60228;BME280;46091;46.512;6.626;2023-06-26T14:30:56;96971.28;;;29.80;40.28
60228;BME280;46091;46.512;6.626;2023-06-26T14:32:59;96970.75;;;29.78;39.99
60228;BME280;46091;46.512;6.626;2023-06-26T14:35:02;96962.59;;;29.78;40.25
60228;BME280;46091;46.512;6.626;2023-06-26T14:37:07;96969.69;;;29.79;40.23
60228;BME280;46091;46.512;6.626;2023-06-26T14:39:11;96967.44;;;29.81;40.15
60228;BME280;46091;46.512;6.626;2023-06-26T14:41:14;96963.91;;;29.80;39.98
60228;BME280;46091;46.512;6.626;2023-06-26T14:43:19;96970.16;;;29.81;39.94
60228;BME280;46091;46.512;6.626;2023-06-26T14:45:24;96966.63;;;29.80;39.97
60228;BME280;46091;46.512;6.626;2023-06-26T14:47:27;96967.13;;;29.82;39.81
60228;BME280;46091;46.512;6.626;2023-06-26T14:49:30;96962.47;;;29.83;40.10
60228;BME280;46091;46.512;6.626;2023-06-26T14:51:34;96968.41;;;29.85;39.63
60228;BME280;46091;46.512;6.626;2023-06-26T14:53:37;96962.97;;;29.85;39.59
60228;BME280;46091;46.512;6.626;2023-06-26T14:55:40;96964.09;;;29.84;39.61
60228;BME280;46091;46.512;6.626;2023-06-26T14:57:43;96956.53;;;29.81;39.38
60228;BME280;46091;46.512;6.626;2023-06-26T14:59:46;96963.09;;;29.80;38.99
60228;BME280;46091;46.512;6.626;2023-06-26T15:01:50;96963.28;;;29.83;39.39
60228;BME280;46091;46.512;6.626;2023-06-26T15:03:53;96962.97;;;29.85;39.21
60228;BME280;46091;46.512;6.626;2023-06-26T15:05:57;96962.97;;;29.85;39.26
60228;BME280;46091;46.512;6.626;2023-06-26T15:08:00;96963.75;;;29.85;39.19
60228;BME280;46091;46.512;6.626;2023-06-26T15:10:03;96960.72;;;29.87;39.05
60228;BME280;46091;46.512;6.626;2023-06-26T15:12:07;96954.94;;;29.89;38.98
60228;BME280;46091;46.512;6.626;2023-06-26T15:14:10;96954.47;;;29.86;38.74
60228;BME280;46091;46.512;6.626;2023-06-26T15:16:13;96955.59;;;29.85;38.91
60228;BME280;46091;46.512;6.626;2023-06-26T15:18:18;96949.81;;;29.87;38.71
60228;BME280;46091;46.512;6.626;2023-06-26T15:20:21;96958.47;;;29.89;38.81
60228;BME280;46091;46.512;6.626;2023-06-26T15:22:26;96953.84;;;29.90;38.64
60228;BME280;46091;46.512;6.626;2023-06-26T15:24:29;96959.00;;;29.91;38.47
60228;BME280;46091;46.512;6.626;2023-06-26T15:26:32;96957.06;;;29.92;38.54
60228;BME280;46091;46.512;6.626;2023-06-26T15:28:35;96955.63;;;29.94;38.32
60228;BME280;46091;46.512;6.626;2023-06-26T15:30:38;96961.25;;;29.98;38.26